Jackson, Ohio
Current Conditions -  °F | °C
As of 2:15 PM on Monday 20 Oct 2014 (Local Time) from KUNI Reporting Station
Scattered Clouds Scattered Clouds  
Wind Chill: 59°   Ceiling: Unl
Heat Index: 59°   Visibility: 10mi
Dew Point: 44°   Wind: 12mph
Humidity: 57%   Direction: 210°SSW
Pressure: 29.92"   Gusts: 17mph
Location:  39.05°N, 82.64°W
Report Text: KUNI 201815Z AUTO 21010G15KT 170V230 10SM SCT100 15/07 A2992 RMK AO2 T01510067
Loading
Personal Weather Stations






























Interactive Weather Map New forecast layout! Learn more

10-Day Weather Forecast

Advertisements
Track Severe Weather on mobile